createdAt,value
2023-04-27T00:00:03.243Z,1019.67
2023-04-27T00:05:04.547Z,1019.69
2023-04-27T00:10:03.539Z,1019.6
2023-04-27T00:15:03.311Z,1019.63
2023-04-27T00:20:02.962Z,1019.63
2023-04-27T00:25:03.692Z,1019.64
2023-04-27T00:30:03.373Z,1019.58
2023-04-27T00:35:03.418Z,1019.61
2023-04-27T00:40:03.094Z,1019.69
2023-04-27T00:45:02.944Z,1019.61
2023-04-27T00:50:02.948Z,1019.61
2023-04-27T00:55:04.290Z,1019.64
2023-04-27T01:00:02.897Z,1019.66
2023-04-27T01:05:03.673Z,1019.82
2023-04-27T01:10:03.299Z,1019.66
2023-04-27T01:15:03.586Z,1019.7
2023-04-27T01:20:03.148Z,1019.75
2023-04-27T01:25:03.035Z,1019.75
2023-04-27T01:30:03.000Z,1019.77
2023-04-27T01:35:03.575Z,1019.75
2023-04-27T01:40:03.483Z,1019.71
2023-04-27T01:45:03.290Z,1019.78
2023-04-27T01:50:03.091Z,1019.82
2023-04-27T01:55:03.129Z,1019.85
2023-04-27T02:00:03.748Z,1019.87
2023-04-27T02:05:03.404Z,1019.97
2023-04-27T02:10:03.192Z,1019.85
2023-04-27T02:15:02.868Z,1019.96
2023-04-27T02:20:02.816Z,1020.02
2023-04-27T02:25:03.726Z,1020
2023-04-27T02:30:05.159Z,1020.02
2023-04-27T02:35:03.430Z,1020.04
2023-04-27T02:40:03.238Z,1020.12
2023-04-27T02:45:02.993Z,1020.12
2023-04-27T02:50:03.794Z,1020.04
2023-04-27T02:55:03.813Z,1020.02
2023-04-27T03:00:04.592Z,1020.07
2023-04-27T03:05:03.008Z,1020.17
2023-04-27T03:10:02.879Z,1020.18
2023-04-27T03:15:03.612Z,1020.11
2023-04-27T03:20:03.348Z,1020.2
2023-04-27T03:25:03.020Z,1020.31
2023-04-27T03:30:03.866Z,1020.44
2023-04-27T03:35:03.447Z,1020.44
2023-04-27T03:40:03.086Z,1020.52
2023-04-27T03:45:03.795Z,1020.53
2023-04-27T03:50:03.908Z,1020.62
2023-04-27T03:55:03.364Z,1020.63
2023-04-27T04:00:03.212Z,1020.77
2023-04-27T04:05:03.154Z,1020.83
2023-04-27T04:10:02.853Z,1020.8
2023-04-27T04:15:03.567Z,1020.8
2023-04-27T04:20:03.556Z,1020.85
2023-04-27T04:25:03.291Z,1020.95
2023-04-27T04:30:03.476Z,1021.02
2023-04-27T04:35:03.426Z,1021.05
2023-04-27T04:40:03.625Z,1021.04
2023-04-27T04:45:03.111Z,1021.03
2023-04-27T04:50:03.676Z,1021.09
2023-04-27T04:55:03.695Z,1021.07
2023-04-27T05:00:03.465Z,1021.12
2023-04-27T05:05:03.104Z,1021.14
2023-04-27T05:10:02.931Z,1021.14
2023-04-27T05:15:03.538Z,1021.01
2023-04-27T05:20:03.288Z,1021.07
2023-04-27T05:25:03.401Z,1021.12
2023-04-27T05:30:03.145Z,1021.05
2023-04-27T05:35:02.983Z,1021.05
2023-04-27T05:40:04.482Z,1021.07
2023-04-27T05:45:03.679Z,1021.17
2023-04-27T05:50:03.390Z,1021.08
2023-04-27T05:55:03.084Z,1021.23
2023-04-27T06:00:03.370Z,1021.17
2023-04-27T06:05:03.422Z,1021.22
2023-04-27T06:10:03.208Z,1021.19
2023-04-27T06:15:03.073Z,1021.37
2023-04-27T06:20:03.068Z,1021.34
2023-04-27T06:25:02.868Z,1021.36
2023-04-27T06:30:03.095Z,1021.32
2023-04-27T06:35:03.632Z,1021.37
2023-04-27T06:40:03.247Z,1021.42
2023-04-27T06:45:03.029Z,1021.44
2023-04-27T06:50:03.028Z,1021.54
2023-04-27T06:55:04.047Z,1021.49
2023-04-27T07:00:03.653Z,1021.54
2023-04-27T07:05:03.958Z,1021.58
2023-04-27T07:10:03.333Z,1021.62
2023-04-27T07:15:03.676Z,1021.63
2023-04-27T07:20:03.407Z,1021.62
2023-04-27T07:25:02.938Z,1021.62
2023-04-27T07:30:03.128Z,1021.66
2023-04-27T07:35:02.839Z,1021.63
2023-04-27T07:40:03.630Z,1021.75
2023-04-27T07:45:02.907Z,1021.74
2023-04-27T07:50:02.912Z,1021.78
2023-04-27T07:55:04.116Z,1021.74
2023-04-27T08:00:03.411Z,1021.79
2023-04-27T08:05:06.081Z,1021.83
2023-04-27T08:10:03.445Z,1021.92
2023-04-27T08:15:03.228Z,1021.88
2023-04-27T08:20:03.006Z,1021.94
2023-04-27T08:25:03.790Z,1021.81
2023-04-27T08:30:03.680Z,1021.86
2023-04-27T08:35:03.445Z,1021.95
2023-04-27T08:40:03.580Z,1021.9
2023-04-27T08:45:03.448Z,1021.92
2023-04-27T08:50:03.287Z,1021.83
2023-04-27T08:55:03.348Z,1021.8
2023-04-27T09:00:03.098Z,1021.67
2023-04-27T09:05:03.996Z,1021.87
2023-04-27T09:10:03.726Z,1021.69
2023-04-27T09:15:03.412Z,1021.69
2023-04-27T09:20:03.200Z,1021.79
2023-04-27T09:25:03.029Z,1021.69
2023-04-27T09:30:02.835Z,1021.62
2023-04-27T09:35:03.528Z,1021.74
2023-04-27T09:40:03.520Z,1021.65
2023-04-27T09:45:03.282Z,1021.59
2023-04-27T09:50:02.977Z,1021.51
2023-04-27T09:55:03.972Z,1021.49
2023-04-27T10:00:03.451Z,1021.52
2023-04-27T10:05:03.516Z,1021.58
2023-04-27T10:10:03.115Z,1021.5
2023-04-27T10:15:03.710Z,1021.43
2023-04-27T10:20:03.849Z,1021.46
2023-04-27T10:25:03.415Z,1021.4
2023-04-27T10:30:03.801Z,1021.34
2023-04-27T10:35:03.527Z,1021.45
2023-04-27T10:40:03.251Z,1021.44
2023-04-27T10:45:03.043Z,1021.48
2023-04-27T10:50:03.726Z,1021.41
2023-04-27T10:55:04.226Z,1021.54
2023-04-27T11:00:03.412Z,1021.57
2023-04-27T11:05:03.450Z,1021.43
2023-04-27T11:10:02.974Z,1021.45
2023-04-27T11:15:03.678Z,1021.42
2023-04-27T11:20:03.493Z,1021.42
2023-04-27T11:25:03.379Z,1021.32
2023-04-27T11:30:03.076Z,1021.41
2023-04-27T11:35:03.750Z,1021.5
2023-04-27T11:40:03.560Z,1021.5
2023-04-27T11:45:03.359Z,1021.47
2023-04-27T11:50:03.454Z,1021.47
2023-04-27T11:55:03.614Z,1021.55
2023-04-27T12:00:03.661Z,1021.55
2023-04-27T12:05:05.182Z,1021.51
2023-04-27T12:10:03.451Z,1021.56
2023-04-27T12:15:03.077Z,1021.59
2023-04-27T12:20:03.208Z,1021.59
2023-04-27T12:25:03.243Z,1021.53
2023-04-27T12:30:03.228Z,1021.52
2023-04-27T12:35:03.716Z,1021.44
2023-04-27T12:40:03.488Z,1021.47
2023-04-27T12:45:03.205Z,1021.44
2023-04-27T12:50:02.819Z,1021.55
2023-04-27T12:55:03.924Z,1021.51
2023-04-27T13:00:03.478Z,1021.47
2023-04-27T13:05:03.594Z,1021.49
2023-04-27T13:10:02.879Z,1021.45
2023-04-27T13:15:03.699Z,1021.35
2023-04-27T13:20:03.652Z,1021.36
2023-04-27T13:25:03.282Z,1021.29
2023-04-27T13:30:03.135Z,1021.3
2023-04-27T13:35:03.088Z,1021.25
2023-04-27T13:40:02.933Z,1021.31
2023-04-27T13:45:03.812Z,1021.27
2023-04-27T13:50:03.870Z,1021.21
2023-04-27T13:55:03.630Z,1021.3
2023-04-27T14:00:03.249Z,1021.29
2023-04-27T14:05:03.666Z,1021.16
2023-04-27T14:10:02.913Z,1021.08
2023-04-27T14:15:03.663Z,1021.07
2023-04-27T14:20:03.453Z,1021.07
2023-04-27T14:25:03.560Z,1021.12
2023-04-27T14:30:03.305Z,1021.06
2023-04-27T14:35:03.095Z,1021.18
2023-04-27T14:40:03.717Z,1021.13
2023-04-27T14:45:03.580Z,1021.24
2023-04-27T14:50:03.464Z,1021.13
2023-04-27T14:55:03.722Z,1021.09
2023-04-27T15:00:03.187Z,1021.11
2023-04-27T15:05:03.281Z,1021.2
2023-04-27T15:10:02.770Z,1021.09
2023-04-27T15:15:03.650Z,1021.12
2023-04-27T15:20:03.500Z,1021.12
2023-04-27T15:25:03.176Z,1021.13
2023-04-27T15:30:02.955Z,1021.05
2023-04-27T15:35:03.527Z,1021.02
2023-04-27T15:40:03.292Z,1020.97
2023-04-27T15:45:03.207Z,1020.96
2023-04-27T15:50:03.508Z,1020.86
2023-04-27T15:55:03.995Z,1020.8
2023-04-27T16:00:03.730Z,1020.81
2023-04-27T16:05:03.384Z,1020.8
2023-04-27T16:10:03.729Z,1020.83
2023-04-27T16:15:02.940Z,1020.6
2023-04-27T16:20:03.187Z,1020.74
2023-04-27T16:25:03.534Z,1020.67
2023-04-27T16:30:03.419Z,1020.64
2023-04-27T16:35:03.464Z,1020.65
2023-04-27T16:40:03.839Z,1020.72
2023-04-27T16:45:03.609Z,1020.73
2023-04-27T16:50:03.103Z,1020.74
2023-04-27T16:55:02.846Z,1020.69
2023-04-27T17:00:03.644Z,1020.81
2023-04-27T17:05:04.116Z,1020.75
2023-04-27T17:10:03.323Z,1020.74
2023-04-27T17:15:03.104Z,1020.7
2023-04-27T17:20:02.753Z,1020.82
2023-04-27T17:25:03.701Z,1020.79
2023-04-27T17:30:03.484Z,1020.73
2023-04-27T17:35:03.097Z,1020.84
2023-04-27T17:40:02.821Z,1020.86
2023-04-27T17:45:03.632Z,1020.84
2023-04-27T17:50:02.845Z,1020.74
2023-04-27T17:55:04.152Z,1020.74
2023-04-27T18:00:03.459Z,1020.73
2023-04-27T18:05:03.460Z,1020.74
2023-04-27T18:10:03.130Z,1020.85
2023-04-27T18:15:10.359Z,1020.91
2023-04-27T18:20:11.321Z,1020.94
2023-04-27T18:25:03.262Z,1021.08
2023-04-27T18:30:02.830Z,1021.12
2023-04-27T18:35:03.819Z,1021.12
2023-04-27T18:40:03.473Z,1021.09
2023-04-27T18:45:03.337Z,1021.11
2023-04-27T18:50:03.030Z,1021.17
2023-04-27T18:55:03.120Z,1021.26
2023-04-27T19:00:03.484Z,1021.28
2023-04-27T19:05:14.582Z,1021.28
2023-04-27T19:10:03.693Z,1021.24
2023-04-27T19:15:03.574Z,1021.22
2023-04-27T19:20:03.081Z,1021.17
2023-04-27T19:25:03.820Z,1021.22
2023-04-27T19:30:03.375Z,1021.11
2023-04-27T19:35:03.071Z,1021.05
2023-04-27T19:40:03.003Z,1021.13
2023-04-27T19:45:03.547Z,1021.03
2023-04-27T19:50:03.279Z,1021.13
2023-04-27T19:55:03.188Z,1021.17
2023-04-27T20:00:03.897Z,1021.11
2023-04-27T20:05:04.802Z,1021.16
2023-04-27T20:10:03.138Z,1021.18
2023-04-27T20:15:02.974Z,1021.22
2023-04-27T20:20:03.699Z,1021.23
2023-04-27T20:25:03.503Z,1021.22
2023-04-27T20:30:03.576Z,1021.08
2023-04-27T20:35:03.395Z,1021.15
2023-04-27T20:40:03.116Z,1021.04
2023-04-27T20:45:02.856Z,1021.03
2023-04-27T20:50:03.856Z,1021.06
2023-04-27T20:55:04.083Z,1021.07
2023-04-27T21:00:03.488Z,1020.97
2023-04-27T21:05:03.933Z,1020.94
2023-04-27T21:10:03.043Z,1020.89
2023-04-27T21:15:03.858Z,1020.93
2023-04-27T21:20:03.776Z,1020.83
2023-04-27T21:25:03.394Z,1020.82
2023-04-27T21:30:03.163Z,1020.81
2023-04-27T21:35:02.837Z,1020.74
2023-04-27T21:40:02.986Z,1020.73
2023-04-27T21:45:03.448Z,1020.78
2023-04-27T21:50:03.262Z,1020.93
2023-04-27T21:55:03.071Z,1020.81
2023-04-27T22:00:03.733Z,1020.77
2023-04-27T22:05:03.420Z,1020.76
2023-04-27T22:10:02.947Z,1020.79
2023-04-27T22:15:03.712Z,1020.8
2023-04-27T22:20:03.583Z,1020.83
2023-04-27T22:25:03.554Z,1020.9
2023-04-27T22:30:03.298Z,1020.9
2023-04-27T22:35:06.980Z,1020.76
2023-04-27T22:40:03.596Z,1020.76
2023-04-27T22:45:03.432Z,1020.83
2023-04-27T22:50:03.356Z,1020.92
2023-04-27T22:55:03.237Z,1020.81
2023-04-27T23:00:02.869Z,1020.73
2023-04-27T23:05:03.611Z,1020.64
2023-04-27T23:10:03.565Z,1020.66
2023-04-27T23:15:03.252Z,1020.52
2023-04-27T23:20:14.124Z,1020.56
2023-04-27T23:25:03.578Z,1020.57
2023-04-27T23:30:03.280Z,1020.54
2023-04-27T23:35:03.269Z,1020.54
2023-04-27T23:40:03.127Z,1020.43
2023-04-27T23:45:02.879Z,1020.33
2023-04-27T23:50:03.547Z,1020.31
2023-04-27T23:55:03.908Z,1020.28
